sensor_id;sensor_type;location;lat;lon;timestamp;pressure;altitude;pressure_sealevel;temperature;humidity
38939;BME280;24211;49.980;19.776;2023-05-03T00:00:04;99970.53;;;13.61;100.00
38939;BME280;24211;49.980;19.776;2023-05-03T00:02:54;99974.03;;;13.62;100.00
38939;BME280;24211;49.980;19.776;2023-05-03T00:05:25;99963.75;;;13.59;100.00
38939;BME280;24211;49.980;19.776;2023-05-03T00:07:54;99970.19;;;13.58;100.00
38939;BME280;24211;49.980;19.776;2023-05-03T00:10:23;99976.59;;;13.57;100.00
38939;BME280;24211;49.980;19.776;2023-05-03T00:12:51;99975.56;;;13.58;100.00
38939;BME280;24211;49.980;19.776;2023-05-03T00:15:18;99964.22;;;13.56;100.00
38939;BME280;24211;49.980;19.776;2023-05-03T00:17:46;99966.31;;;13.54;100.00
38939;BME280;24211;49.980;19.776;2023-05-03T00:20:13;99967.38;;;13.53;100.00
38939;BME280;24211;49.980;19.776;2023-05-03T00:22:41;99960.59;;;13.50;100.00
38939;BME280;24211;49.980;19.776;2023-05-03T00:25:08;99971.31;;;13.50;100.00
38939;BME280;24211;49.980;19.776;2023-05-03T00:27:37;99961.84;;;13.48;100.00
38939;BME280;24211;49.980;19.776;2023-05-03T00:30:05;99960.69;;;13.44;100.00
38939;BME280;24211;49.980;19.776;2023-05-03T00:32:33;99951.81;;;13.43;100.00
38939;BME280;24211;49.980;19.776;2023-05-03T00:35:00;99957.38;;;13.42;100.00
38939;BME280;24211;49.980;19.776;2023-05-03T00:37:28;99961.97;;;13.41;100.00
38939;BME280;24211;49.980;19.776;2023-05-03T00:39:56;99971.88;;;13.41;100.00
38939;BME280;24211;49.980;19.776;2023-05-03T00:42:24;99959.50;;;13.40;100.00
38939;BME280;24211;49.980;19.776;2023-05-03T00:44:51;99963.22;;;13.39;100.00
38939;BME280;24211;49.980;19.776;2023-05-03T00:47:21;99969.63;;;13.38;100.00
38939;BME280;24211;49.980;19.776;2023-05-03T00:49:49;99965.31;;;13.37;100.00
38939;BME280;24211;49.980;19.776;2023-05-03T00:52:17;99966.38;;;13.36;100.00
38939;BME280;24211;49.980;19.776;2023-05-03T00:54:45;99959.59;;;13.33;100.00
38939;BME280;24211;49.980;19.776;2023-05-03T00:57:13;99969.50;;;13.33;100.00
38939;BME280;24211;49.980;19.776;2023-05-03T00:59:41;99962.47;;;13.32;100.00
38939;BME280;24211;49.980;19.776;2023-05-03T01:02:08;99971.59;;;13.31;100.00
38939;BME280;24211;49.980;19.776;2023-05-03T01:04:36;99966.22;;;13.31;100.00
38939;BME280;24211;49.980;19.776;2023-05-03T01:07:29;99969.16;;;13.29;100.00
38939;BME280;24211;49.980;19.776;2023-05-03T01:18:48;99968.19;;;13.24;100.00
38939;BME280;24211;49.980;19.776;2023-05-03T01:21:18;99970.03;;;13.23;100.00
38939;BME280;24211;49.980;19.776;2023-05-03T01:24:10;99968.38;;;13.22;100.00
38939;BME280;24211;49.980;19.776;2023-05-03T01:26:39;99971.31;;;13.21;100.00
38939;BME280;24211;49.980;19.776;2023-05-03T01:29:07;99963.50;;;13.19;100.00
38939;BME280;24211;49.980;19.776;2023-05-03T01:31:47;99970.47;;;13.20;100.00
38939;BME280;24211;49.980;19.776;2023-05-03T01:34:45;99968.03;;;13.19;100.00
38939;BME280;24211;49.980;19.776;2023-05-03T01:37:17;99968.47;;;13.16;100.00
38939;BME280;24211;49.980;19.776;2023-05-03T01:40:01;99970.94;;;13.17;100.00
38939;BME280;24211;49.980;19.776;2023-05-03T01:42:34;99965.19;;;13.14;100.00
38939;BME280;24211;49.980;19.776;2023-05-03T01:45:07;99962.97;;;13.10;100.00
38939;BME280;24211;49.980;19.776;2023-05-03T01:47:34;99964.03;;;13.09;100.00
38939;BME280;24211;49.980;19.776;2023-05-03T01:50:02;99957.00;;;13.08;100.00
38939;BME280;24211;49.980;19.776;2023-05-03T01:52:30;99967.16;;;13.06;100.00
38939;BME280;24211;49.980;19.776;2023-05-03T01:54:57;99964.47;;;13.06;100.00
38939;BME280;24211;49.980;19.776;2023-05-03T01:57:26;99966.53;;;13.04;100.00
38939;BME280;24211;49.980;19.776;2023-05-03T01:59:53;99969.41;;;13.03;100.00
38939;BME280;24211;49.980;19.776;2023-05-03T02:02:20;99970.25;;;13.03;100.00
38939;BME280;24211;49.980;19.776;2023-05-03T02:04:48;99960.53;;;13.02;100.00
38939;BME280;24211;49.980;19.776;2023-05-03T02:07:17;99970.69;;;13.00;100.00
38939;BME280;24211;49.980;19.776;2023-05-03T02:09:45;99969.06;;;12.99;100.00
38939;BME280;24211;49.980;19.776;2023-05-03T02:12:12;99965.75;;;12.97;100.00
38939;BME280;24211;49.980;19.776;2023-05-03T02:14:39;99964.97;;;12.97;100.00
38939;BME280;24211;49.980;19.776;2023-05-03T02:17:08;99978.59;;;12.95;100.00
38939;BME280;24211;49.980;19.776;2023-05-03T02:19:37;99966.22;;;12.94;100.00
38939;BME280;24211;49.980;19.776;2023-05-03T02:22:06;99975.31;;;12.93;100.00
38939;BME280;24211;49.980;19.776;2023-05-03T02:24:33;99973.66;;;12.92;100.00
38939;BME280;24211;49.980;19.776;2023-05-03T02:27:02;99981.94;;;12.91;100.00
38939;BME280;24211;49.980;19.776;2023-05-03T02:29:31;99974.13;;;12.89;100.00
38939;BME280;24211;49.980;19.776;2023-05-03T02:32:00;99967.94;;;12.89;100.00
38939;BME280;24211;49.980;19.776;2023-05-03T02:34:27;99968.19;;;12.87;100.00
38939;BME280;24211;49.980;19.776;2023-05-03T02:36:55;99970.84;;;12.87;100.00
38939;BME280;24211;49.980;19.776;2023-05-03T02:39:22;99967.56;;;12.85;100.00
38939;BME280;24211;49.980;19.776;2023-05-03T02:41:50;99963.25;;;12.84;100.00
38939;BME280;24211;49.980;19.776;2023-05-03T02:44:18;99976.88;;;12.83;100.00
38939;BME280;24211;49.980;19.776;2023-05-03T02:46:45;99970.72;;;12.82;100.00
38939;BME280;24211;49.980;19.776;2023-05-03T02:49:16;99971.16;;;12.79;100.00
38939;BME280;24211;49.980;19.776;2023-05-03T02:51:43;99970.56;;;12.77;100.00
38939;BME280;24211;49.980;19.776;2023-05-03T02:54:11;99973.44;;;12.76;100.00
38939;BME280;24211;49.980;19.776;2023-05-03T02:56:39;99979.25;;;12.73;100.00
38939;BME280;24211;49.980;19.776;2023-05-03T02:59:06;99974.25;;;12.76;100.00
38939;BME280;24211;49.980;19.776;2023-05-03T03:01:34;99975.53;;;12.74;100.00
38939;BME280;24211;49.980;19.776;2023-05-03T03:04:02;99976.34;;;12.74;100.00
38939;BME280;24211;49.980;19.776;2023-05-03T03:06:29;99981.13;;;12.72;100.00
38939;BME280;24211;49.980;19.776;2023-05-03T03:08:58;99972.25;;;12.72;100.00
38939;BME280;24211;49.980;19.776;2023-05-03T03:11:25;99979.47;;;12.71;100.00
38939;BME280;24211;49.980;19.776;2023-05-03T03:13:53;99984.25;;;12.69;100.00
38939;BME280;24211;49.980;19.776;2023-05-03T03:16:20;99982.59;;;12.68;100.00
38939;BME280;24211;49.980;19.776;2023-05-03T03:18:48;99974.78;;;12.67;100.00
38939;BME280;24211;49.980;19.776;2023-05-03T03:21:15;99981.78;;;12.68;100.00
38939;BME280;24211;49.980;19.776;2023-05-03T03:23:43;99979.31;;;12.66;100.00
38939;BME280;24211;49.980;19.776;2023-05-03T03:26:10;99976.03;;;12.64;100.00
38939;BME280;24211;49.980;19.776;2023-05-03T03:28:38;99977.69;;;12.65;100.00
38939;BME280;24211;49.980;19.776;2023-05-03T03:31:09;99980.59;;;12.64;100.00
38939;BME280;24211;49.980;19.776;2023-05-03T03:33:38;99980.59;;;12.64;100.00
38939;BME280;24211;49.980;19.776;2023-05-03T03:36:11;99980.59;;;12.64;100.00
38939;BME280;24211;49.980;19.776;2023-05-03T03:38:42;99978.13;;;12.62;100.00
38939;BME280;24211;49.980;19.776;2023-05-03T03:41:10;99987.22;;;12.61;100.00
38939;BME280;24211;49.980;19.776;2023-05-03T03:43:38;99981.03;;;12.61;100.00
38939;BME280;24211;49.980;19.776;2023-05-03T03:46:10;99976.72;;;12.60;100.00
38939;BME280;24211;49.980;19.776;2023-05-03T03:48:39;99983.94;;;12.59;100.00
38939;BME280;24211;49.980;19.776;2023-05-03T03:51:06;99989.28;;;12.59;100.00
38939;BME280;24211;49.980;19.776;2023-05-03T03:53:40;99985.59;;;12.60;100.00
38939;BME280;24211;49.980;19.776;2023-05-03T03:56:07;99996.31;;;12.60;100.00
38939;BME280;24211;49.980;19.776;2023-05-03T03:58:35;99993.84;;;12.59;100.00
38939;BME280;24211;49.980;19.776;2023-05-03T04:01:05;99999.19;;;12.59;100.00
38939;BME280;24211;49.980;19.776;2023-05-03T04:03:33;99998.38;;;12.58;100.00
38939;BME280;24211;49.980;19.776;2023-05-03T04:06:01;100004.78;;;12.57;100.00
38939;BME280;24211;49.980;19.776;2023-05-03T04:08:28;100012.84;;;12.57;100.00
38939;BME280;24211;49.980;19.776;2023-05-03T04:10:56;100005.81;;;12.56;100.00
38939;BME280;24211;49.980;19.776;2023-05-03T04:13:25;100013.66;;;12.58;100.00
38939;BME280;24211;49.980;19.776;2023-05-03T04:15:55;100014.69;;;12.57;100.00
38939;BME280;24211;49.980;19.776;2023-05-03T04:18:24;100015.50;;;12.57;100.00
38939;BME280;24211;49.980;19.776;2023-05-03T04:20:53;100016.53;;;12.56;100.00
38939;BME280;24211;49.980;19.776;2023-05-03T04:23:21;100012.25;;;12.55;100.00
38939;BME280;24211;49.980;19.776;2023-05-03T04:25:48;100019.03;;;12.58;100.00
38939;BME280;24211;49.980;19.776;2023-05-03T04:28:18;100022.72;;;12.57;100.00
38939;BME280;24211;49.980;19.776;2023-05-03T04:30:48;100025.19;;;12.58;100.00
38939;BME280;24211;49.980;19.776;2023-05-03T04:33:21;100028.91;;;12.57;100.00
38939;BME280;24211;49.980;19.776;2023-05-03T04:35:51;100027.25;;;12.56;100.00
38939;BME280;24211;49.980;19.776;2023-05-03T04:38:19;100027.25;;;12.56;100.00
38939;BME280;24211;49.980;19.776;2023-05-03T04:40:46;100027.25;;;12.56;100.00
38939;BME280;24211;49.980;19.776;2023-05-03T04:43:14;100034.28;;;12.57;100.00
38939;BME280;24211;49.980;19.776;2023-05-03T04:45:44;100034.28;;;12.57;100.00
38939;BME280;24211;49.980;19.776;2023-05-03T04:48:17;100035.09;;;12.58;100.00
38939;BME280;24211;49.980;19.776;2023-05-03T04:50:45;100038.59;;;12.58;100.00
38939;BME280;24211;49.980;19.776;2023-05-03T04:53:16;100035.91;;;12.58;100.00
38939;BME280;24211;49.980;19.776;2023-05-03T04:55:48;100042.91;;;12.59;100.00
38939;BME280;24211;49.980;19.776;2023-05-03T04:58:17;100042.91;;;12.59;100.00
38939;BME280;24211;49.980;19.776;2023-05-03T05:00:45;100045.59;;;12.59;100.00
38939;BME280;24211;49.980;19.776;2023-05-03T05:03:19;100053.66;;;12.59;100.00
38939;BME280;24211;49.980;19.776;2023-05-03T05:05:48;100059.00;;;12.59;100.00
38939;BME280;24211;49.980;19.776;2023-05-03T05:08:17;100066.03;;;12.60;100.00
38939;BME280;24211;49.980;19.776;2023-05-03T05:10:50;100059.84;;;12.60;100.00
38939;BME280;24211;49.980;19.776;2023-05-03T05:13:23;100058.56;;;12.62;100.00
38939;BME280;24211;49.980;19.776;2023-05-03T05:15:50;100061.25;;;12.62;100.00
38939;BME280;24211;49.980;19.776;2023-05-03T05:18:18;100064.97;;;12.61;100.00
38939;BME280;24211;49.980;19.776;2023-05-03T05:20:47;100063.94;;;12.62;100.00
38939;BME280;24211;49.980;19.776;2023-05-03T05:23:14;100064.75;;;12.63;100.00
38939;BME280;24211;49.980;19.776;2023-05-03T05:25:45;100066.63;;;12.62;100.00
38939;BME280;24211;49.980;19.776;2023-05-03T05:28:12;100072.56;;;12.64;100.00
38939;BME280;24211;49.980;19.776;2023-05-03T05:30:40;100070.94;;;12.63;100.00
38939;BME280;24211;49.980;19.776;2023-05-03T05:33:07;100069.91;;;12.64;100.00
38939;BME280;24211;49.980;19.776;2023-05-03T05:35:35;100077.94;;;12.64;100.00
38939;BME280;24211;49.980;19.776;2023-05-03T05:38:04;100082.28;;;12.65;100.00
38939;BME280;24211;49.980;19.776;2023-05-03T05:40:32;100075.03;;;12.66;100.00
38939;BME280;24211;49.980;19.776;2023-05-03T05:43:01;100081.22;;;12.66;100.00
38939;BME280;24211;49.980;19.776;2023-05-03T05:45:30;100084.97;;;12.65;100.00
38939;BME280;24211;49.980;19.776;2023-05-03T05:47:58;100090.31;;;12.65;100.00
38939;BME280;24211;49.980;19.776;2023-05-03T05:50:25;100084.97;;;12.65;100.00
38939;BME280;24211;49.980;19.776;2023-05-03T05:52:59;100087.66;;;12.65;100.00
38939;BME280;24211;49.980;19.776;2023-05-03T05:55:29;100085.56;;;12.67;100.00
38939;BME280;24211;49.980;19.776;2023-05-03T05:57:59;100086.59;;;12.66;100.00
38939;BME280;24211;49.980;19.776;2023-05-03T06:00:34;100090.91;;;12.67;100.00
38939;BME280;24211;49.980;19.776;2023-05-03T06:03:03;100091.94;;;12.66;100.00
38939;BME280;24211;49.980;19.776;2023-05-03T06:05:31;100088.25;;;12.67;100.00
38939;BME280;24211;49.980;19.776;2023-05-03T06:07:58;100099.78;;;12.68;100.00
38939;BME280;24211;49.980;19.776;2023-05-03T06:10:26;100098.13;;;12.67;100.00
38939;BME280;24211;49.980;19.776;2023-05-03T06:12:56;100105.16;;;12.68;100.00
38939;BME280;24211;49.980;19.776;2023-05-03T06:15:25;100104.34;;;12.67;100.00
38939;BME280;24211;49.980;19.776;2023-05-03T06:17:52;100110.53;;;12.68;100.00
38939;BME280;24211;49.980;19.776;2023-05-03T06:20:20;100111.31;;;12.68;100.00
38939;BME280;24211;49.980;19.776;2023-05-03T06:22:51;100105.16;;;12.68;100.00
38939;BME280;24211;49.980;19.776;2023-05-03T06:25:18;100111.31;;;12.68;100.00
38939;BME280;24211;49.980;19.776;2023-05-03T06:27:48;100107.59;;;12.69;100.00
38939;BME280;24211;49.980;19.776;2023-05-03T06:30:18;100112.16;;;12.69;100.00
38939;BME280;24211;49.980;19.776;2023-05-03T06:32:46;100114.59;;;12.70;100.00
38939;BME280;24211;49.980;19.776;2023-05-03T06:35:15;100109.22;;;12.70;100.00
38939;BME280;24211;49.980;19.776;2023-05-03T06:37:44;100110.88;;;12.71;100.00
38939;BME280;24211;49.980;19.776;2023-05-03T06:40:11;100119.53;;;12.73;100.00
38939;BME280;24211;49.980;19.776;2023-05-03T06:42:39;100115.59;;;12.76;100.00
38939;BME280;24211;49.980;19.776;2023-05-03T06:45:32;100123.44;;;12.77;100.00
38939;BME280;24211;49.980;19.776;2023-05-03T06:48:00;100112.72;;;12.77;100.00
38939;BME280;24211;49.980;19.776;2023-05-03T06:50:27;100125.06;;;12.78;100.00
38939;BME280;24211;49.980;19.776;2023-05-03T06:52:55;100122.97;;;12.80;100.00
38939;BME280;24211;49.980;19.776;2023-05-03T06:55:22;100123.59;;;12.82;100.00
38939;BME280;24211;49.980;19.776;2023-05-03T06:57:50;100128.50;;;12.85;100.00
38939;BME280;24211;49.980;19.776;2023-05-03T07:00:19;100128.50;;;12.85;100.00
38939;BME280;24211;49.980;19.776;2023-05-03T07:02:49;100133.44;;;12.88;100.00
38939;BME280;24211;49.980;19.776;2023-05-03T07:05:16;100123.53;;;12.89;100.00
38939;BME280;24211;49.980;19.776;2023-05-03T07:07:44;100135.09;;;12.89;100.00
38939;BME280;24211;49.980;19.776;2023-05-03T07:10:12;100136.72;;;12.90;100.00
38939;BME280;24211;49.980;19.776;2023-05-03T07:12:39;100133.84;;;12.92;100.00
38939;BME280;24211;49.980;19.776;2023-05-03T07:15:07;100145.97;;;12.94;100.00
38939;BME280;24211;49.980;19.776;2023-05-03T07:17:35;100140.38;;;12.96;100.00
38939;BME280;24211;49.980;19.776;2023-05-03T07:20:03;100144.50;;;12.98;100.00
38939;BME280;24211;49.980;19.776;2023-05-03T07:22:31;100135.84;;;12.96;100.00
38939;BME280;24211;49.980;19.776;2023-05-03T07:24:58;100136.69;;;12.97;100.00
38939;BME280;24211;49.980;19.776;2023-05-03T07:27:26;100142.84;;;12.97;100.00
38939;BME280;24211;49.980;19.776;2023-05-03T07:29:53;100152.78;;;12.97;100.00
38939;BME280;24211;49.980;19.776;2023-05-03T07:32:21;100144.50;;;12.98;100.00
38939;BME280;24211;49.980;19.776;2023-05-03T07:34:48;100147.78;;;13.00;100.00
38939;BME280;24211;49.980;19.776;2023-05-03T07:37:15;100154.78;;;13.01;100.00
38939;BME280;24211;49.980;19.776;2023-05-03T07:39:43;100156.72;;;12.94;100.00
38939;BME280;24211;49.980;19.776;2023-05-03T07:42:11;100170.22;;;12.81;100.00
38939;BME280;24211;49.980;19.776;2023-05-03T07:44:38;100168.22;;;12.70;100.00
38939;BME280;24211;49.980;19.776;2023-05-03T07:47:06;100167.44;;;12.70;100.00
38939;BME280;24211;49.980;19.776;2023-05-03T07:49:36;100175.25;;;12.71;100.00
38939;BME280;24211;49.980;19.776;2023-05-03T07:52:04;100181.38;;;12.78;100.00
38939;BME280;24211;49.980;19.776;2023-05-03T07:54:31;100177.69;;;12.79;100.00
38939;BME280;24211;49.980;19.776;2023-05-03T07:56:59;100184.91;;;12.79;100.00
38939;BME280;24211;49.980;19.776;2023-05-03T07:59:26;100180.78;;;12.76;100.00
38939;BME280;24211;49.980;19.776;2023-05-03T08:01:54;100180.97;;;12.81;100.00
38939;BME280;24211;49.980;19.776;2023-05-03T08:04:21;100185.47;;;12.87;100.00
38939;BME280;24211;49.980;19.776;2023-05-03T08:06:50;100168.81;;;13.03;100.00
38939;BME280;24211;49.980;19.776;2023-05-03T08:09:18;100178.91;;;13.08;100.00
38939;BME280;24211;49.980;19.776;2023-05-03T08:11:46;100178.34;;;12.99;100.00
38939;BME280;24211;49.980;19.776;2023-05-03T08:14:14;100178.72;;;13.09;100.00
38939;BME280;24211;49.980;19.776;2023-05-03T08:16:41;100180.88;;;13.19;100.00
38939;BME280;24211;49.980;19.776;2023-05-03T08:19:09;100184.50;;;13.06;100.00
38939;BME280;24211;49.980;19.776;2023-05-03T08:21:36;100178.31;;;13.06;100.00
38939;BME280;24211;49.980;19.776;2023-05-03T08:24:04;100181.16;;;13.11;100.00
38939;BME280;24211;49.980;19.776;2023-05-03T08:26:32;100179.47;;;13.17;100.00
38939;BME280;24211;49.980;19.776;2023-05-03T08:29:00;100187.53;;;13.17;100.00
38939;BME280;24211;49.980;19.776;2023-05-03T08:31:29;100183.50;;;13.26;100.00
38939;BME280;24211;49.980;19.776;2023-05-03T08:33:57;100184.69;;;13.30;100.00
38939;BME280;24211;49.980;19.776;2023-05-03T08:36:24;100191.22;;;13.40;100.00
38939;BME280;24211;49.980;19.776;2023-05-03T08:38:52;100180.78;;;13.50;100.00
38939;BME280;24211;49.980;19.776;2023-05-03T08:41:38;100186.81;;;13.46;100.00
38939;BME280;24211;49.980;19.776;2023-05-03T08:44:10;100193.38;;;13.50;100.00
38939;BME280;24211;49.980;19.776;2023-05-03T08:46:37;100188.75;;;13.57;100.00
38939;BME280;24211;49.980;19.776;2023-05-03T08:49:06;100195.25;;;13.67;100.00
38939;BME280;24211;49.980;19.776;2023-05-03T08:51:33;100198.63;;;13.63;100.00
38939;BME280;24211;49.980;19.776;2023-05-03T08:54:02;100207.50;;;13.63;100.00
38939;BME280;24211;49.980;19.776;2023-05-03T08:56:38;100210.84;;;13.59;100.00
38939;BME280;24211;49.980;19.776;2023-05-03T08:59:07;100199.88;;;13.60;100.00
38939;BME280;24211;49.980;19.776;2023-05-03T09:01:39;100203.41;;;13.61;100.00
38939;BME280;24211;49.980;19.776;2023-05-03T09:04:10;100203.44;;;13.54;100.00
38939;BME280;24211;49.980;19.776;2023-05-03T09:06:37;100206.69;;;13.63;100.00
38939;BME280;24211;49.980;19.776;2023-05-03T09:09:06;100211.16;;;13.69;100.00
38939;BME280;24211;49.980;19.776;2023-05-03T09:11:36;100205.78;;;13.69;100.00
38939;BME280;24211;49.980;19.776;2023-05-03T09:14:15;100210.72;;;13.72;100.00
38939;BME280;24211;49.980;19.776;2023-05-03T09:16:45;100204.28;;;13.91;100.00
38939;BME280;24211;49.980;19.776;2023-05-03T09:19:14;100209.38;;;13.99;100.00
38939;BME280;24211;49.980;19.776;2023-05-03T09:21:45;100216.69;;;13.92;100.00
38939;BME280;24211;49.980;19.776;2023-05-03T09:24:16;100207.84;;;14.03;100.00
38939;BME280;24211;49.980;19.776;2023-05-03T09:26:49;100203.53;;;14.02;100.00
38939;BME280;24211;49.980;19.776;2023-05-03T09:29:31;100210.84;;;14.13;100.00
38939;BME280;24211;49.980;19.776;2023-05-03T09:32:04;100207.72;;;14.16;100.00
38939;BME280;24211;49.980;19.776;2023-05-03T09:34:33;100203.41;;;13.97;100.00
38939;BME280;24211;49.980;19.776;2023-05-03T09:37:01;100208.91;;;14.02;100.00
38939;BME280;24211;49.980;19.776;2023-05-03T09:39:29;100219.50;;;14.15;100.00
38939;BME280;24211;49.980;19.776;2023-05-03T09:41:57;100217.72;;;14.09;100.00
38939;BME280;24211;49.980;19.776;2023-05-03T09:44:49;100218.16;;;14.06;100.00
38939;BME280;24211;49.980;19.776;2023-05-03T09:47:19;100213.09;;;14.16;100.00
38939;BME280;24211;49.980;19.776;2023-05-03T09:49:51;100208.59;;;14.10;100.00
38939;BME280;24211;49.980;19.776;2023-05-03T09:52:20;100211.47;;;13.97;100.00
38939;BME280;24211;49.980;19.776;2023-05-03T09:54:51;100210.25;;;14.11;100.00
38939;BME280;24211;49.980;19.776;2023-05-03T09:57:20;100207.56;;;14.11;100.00
38939;BME280;24211;49.980;19.776;2023-05-03T09:59:48;100205.16;;;14.21;100.00
38939;BME280;24211;49.980;19.776;2023-05-03T10:02:16;100213.22;;;14.21;100.00
38939;BME280;24211;49.980;19.776;2023-05-03T10:04:50;100209.19;;;14.30;100.00
38939;BME280;24211;49.980;19.776;2023-05-03T10:07:22;100208.22;;;14.43;100.00
38939;BME280;24211;49.980;19.776;2023-05-03T10:09:51;100201.81;;;14.56;100.00
38939;BME280;24211;49.980;19.776;2023-05-03T10:12:20;100206.75;;;14.59;100.00
38939;BME280;24211;49.980;19.776;2023-05-03T10:14:51;100206.94;;;14.46;100.00
38939;BME280;24211;49.980;19.776;2023-05-03T10:17:31;100202.38;;;14.46;100.00
38939;BME280;24211;49.980;19.776;2023-05-03T10:20:26;100202.28;;;14.53;100.00
38939;BME280;24211;49.980;19.776;2023-05-03T10:23:10;100203.94;;;14.54;100.00
38939;BME280;24211;49.980;19.776;2023-05-03T10:28:33;100203.63;;;14.62;100.00
38939;BME280;24211;49.980;19.776;2023-05-03T10:31:03;100206.22;;;14.38;100.00
38939;BME280;24211;49.980;19.776;2023-05-03T10:33:33;100201.41;;;14.40;100.00
38939;BME280;24211;49.980;19.776;2023-05-03T10:36:06;100201.56;;;14.46;100.00
38939;BME280;24211;49.980;19.776;2023-05-03T10:38:36;100192.78;;;14.50;100.00
38939;BME280;24211;49.980;19.776;2023-05-03T10:41:04;100201.69;;;14.51;100.00
38939;BME280;24211;49.980;19.776;2023-05-03T10:46:29;100205.03;;;14.34;100.00
38939;BME280;24211;49.980;19.776;2023-05-03T10:49:21;100205.16;;;14.21;100.00
38939;BME280;24211;49.980;19.776;2023-05-03T10:51:49;100209.81;;;14.14;100.00
38939;BME280;24211;49.980;19.776;2023-05-03T10:54:16;100208.59;;;14.10;100.00
38939;BME280;24211;49.980;19.776;2023-05-03T10:56:54;100210.53;;;14.03;100.00
38939;BME280;24211;49.980;19.776;2023-05-03T10:59:23;100220.06;;;13.88;100.00
38939;BME280;24211;49.980;19.776;2023-05-03T11:01:52;100226.38;;;13.75;100.00
38939;BME280;24211;49.980;19.776;2023-05-03T11:04:34;100229.44;;;13.60;100.00
38939;BME280;24211;49.980;19.776;2023-05-03T11:07:03;100222.81;;;13.63;100.00
38939;BME280;24211;49.980;19.776;2023-05-03T11:09:32;100221.09;;;13.68;100.00
38939;BME280;24211;49.980;19.776;2023-05-03T11:12:07;100220.72;;;13.65;100.00
38939;BME280;24211;49.980;19.776;2023-05-03T11:14:34;100223.38;;;13.65;100.00
38939;BME280;24211;49.980;19.776;2023-05-03T11:17:02;100226.16;;;13.58;100.00
38939;BME280;24211;49.980;19.776;2023-05-03T11:19:29;100234.50;;;13.26;100.00
38939;BME280;24211;49.980;19.776;2023-05-03T11:21:57;100228.38;;;13.19;100.00
38939;BME280;24211;49.980;19.776;2023-05-03T11:24:26;100229.41;;;13.18;100.00
38939;BME280;24211;49.980;19.776;2023-05-03T11:26:53;100219.63;;;13.48;100.00
38939;BME280;24211;49.980;19.776;2023-05-03T11:29:24;100223.44;;;13.40;100.00
38939;BME280;24211;49.980;19.776;2023-05-03T11:31:52;100228.41;;;13.37;100.00
38939;BME280;24211;49.980;19.776;2023-05-03T11:34:19;100231.38;;;13.29;100.00
38939;BME280;24211;49.980;19.776;2023-05-03T11:36:47;100235.53;;;13.25;100.00
38939;BME280;24211;49.980;19.776;2023-05-03T11:39:15;100236.91;;;13.34;100.00
38939;BME280;24211;49.980;19.776;2023-05-03T11:42:02;100227.69;;;13.48;100.00
38939;BME280;24211;49.980;19.776;2023-05-03T11:44:30;100227.97;;;13.40;100.00
38939;BME280;24211;49.980;19.776;2023-05-03T11:46:58;100232.16;;;13.54;100.00
38939;BME280;24211;49.980;19.776;2023-05-03T11:49:26;100227.84;;;13.53;100.00
38939;BME280;24211;49.980;19.776;2023-05-03T11:51:55;100238.59;;;13.53;100.00
38939;BME280;24211;49.980;19.776;2023-05-03T11:54:22;100226.94;;;13.59;100.00
38939;BME280;24211;49.980;19.776;2023-05-03T11:56:57;100233.97;;;13.60;100.00
38939;BME280;24211;49.980;19.776;2023-05-03T11:59:39;100228.16;;;13.63;100.00
38939;BME280;24211;49.980;19.776;2023-05-03T12:02:11;100224.88;;;13.61;100.00
38939;BME280;24211;49.980;19.776;2023-05-03T12:04:41;100222.81;;;13.63;100.00
38939;BME280;24211;49.980;19.776;2023-05-03T12:07:10;100225.31;;;13.58;100.00
38939;BME280;24211;49.980;19.776;2023-05-03T12:09:43;100217.44;;;13.63;100.00
38939;BME280;24211;49.980;19.776;2023-05-03T12:12:22;100222.38;;;13.66;100.00
38939;BME280;24211;49.980;19.776;2023-05-03T12:14:59;100218.75;;;13.72;100.00
38939;BME280;24211;49.980;19.776;2023-05-03T12:17:37;100228.00;;;13.76;100.00
38939;BME280;24211;49.980;19.776;2023-05-03T12:20:14;100221.75;;;13.82;100.00
38939;BME280;24211;49.980;19.776;2023-05-03T12:22:54;100218.63;;;13.67;100.00
38939;BME280;24211;49.980;19.776;2023-05-03T12:25:26;100227.25;;;13.69;100.00
38939;BME280;24211;49.980;19.776;2023-05-03T12:28:04;100222.34;;;13.84;100.00
38939;BME280;24211;49.980;19.776;2023-05-03T12:30:46;100218.31;;;13.93;100.00
38939;BME280;24211;49.980;19.776;2023-05-03T12:33:14;100218.19;;;13.88;100.00
38939;BME280;24211;49.980;19.776;2023-05-03T12:35:43;100213.91;;;13.99;100.00
38939;BME280;24211;49.980;19.776;2023-05-03T12:38:14;100216.25;;;13.95;100.00
38939;BME280;24211;49.980;19.776;2023-05-03T12:40:44;100217.13;;;13.89;100.00
38939;BME280;24211;49.980;19.776;2023-05-03T12:43:13;100218.16;;;14.06;100.00
38939;BME280;24211;49.980;19.776;2023-05-03T12:45:41;100210.34;;;14.05;100.00
38939;BME280;24211;49.980;19.776;2023-05-03T12:48:16;100205.25;;;14.15;100.00
38939;BME280;24211;49.980;19.776;2023-05-03T12:50:43;100205.25;;;14.15;100.00
38939;BME280;24211;49.980;19.776;2023-05-03T12:53:12;100203.97;;;14.17;100.00
38939;BME280;24211;49.980;19.776;2023-05-03T12:55:43;100205.59;;;14.18;100.00
38939;BME280;24211;49.980;19.776;2023-05-03T12:58:17;100200.97;;;14.25;100.00
38939;BME280;24211;49.980;19.776;2023-05-03T13:00:47;100194.41;;;14.21;100.00